createdAt,value
2019-02-15T00:00:01.124Z,18.60
2019-02-15T00:02:31.285Z,18.30
2019-02-15T00:05:19.064Z,20.00
2019-02-15T00:07:47.475Z,21.43
2019-02-15T00:10:15.934Z,18.17
2019-02-15T00:12:44.379Z,24.13
2019-02-15T00:15:12.830Z,19.40
2019-02-15T00:17:51.342Z,17.83
2019-02-15T00:20:39.143Z,23.40
2019-02-15T00:23:07.558Z,21.93
2019-02-15T00:25:35.994Z,19.23
2019-02-15T00:28:04.420Z,16.90
2019-02-15T00:30:52.206Z,17.00
2019-02-15T00:33:20.624Z,15.60
2019-02-15T00:35:49.080Z,16.57
2019-02-15T00:38:17.486Z,14.93
2019-02-15T00:41:05.263Z,17.47
2019-02-15T00:43:33.731Z,29.73
2019-02-15T00:46:18.469Z,18.17
2019-02-15T00:48:46.960Z,17.83
2019-02-15T00:51:17.060Z,22.33
2019-02-15T00:53:58.872Z,15.57
2019-02-15T00:56:31.655Z,19.30
2019-02-15T00:59:04.572Z,17.73
2019-02-15T01:01:49.940Z,19.03
2019-02-15T01:04:42.032Z,15.90
2019-02-15T01:07:12.123Z,16.90
2019-02-15T01:10:01.548Z,17.13
2019-02-15T01:12:31.939Z,14.90
2019-02-15T01:15:19.764Z,19.67
2019-02-15T01:17:48.202Z,17.90
2019-02-15T01:20:16.652Z,15.20
2019-02-15T01:22:45.109Z,16.07
2019-02-15T01:25:13.643Z,15.23
2019-02-15T01:28:06.034Z,15.00
2019-02-15T01:30:47.964Z,17.87
2019-02-15T01:33:18.099Z,16.50
2019-02-15T01:35:57.179Z,18.17
2019-02-15T01:38:39.189Z,17.03
2019-02-15T01:44:22.576Z,17.30
2019-02-15T01:47:11.973Z,14.50
2019-02-15T01:52:35.850Z,16.77
2019-02-15T01:55:23.631Z,15.47
2019-02-15T01:57:52.052Z,15.37
2019-02-15T02:00:21.974Z,15.70
2019-02-15T02:02:50.419Z,18.13
2019-02-15T02:05:18.906Z,13.90
2019-02-15T02:08:08.391Z,13.73
2019-02-15T02:10:36.843Z,13.37
2019-02-15T02:13:05.492Z,16.37
2019-02-15T02:15:33.928Z,14.00
2019-02-15T02:18:21.716Z,14.37
2019-02-15T02:21:02.653Z,17.57
2019-02-15T02:23:31.087Z,15.80
2019-02-15T02:26:18.863Z,17.00
2019-02-15T02:29:06.703Z,16.73
2019-02-15T02:31:35.158Z,17.80
2019-02-15T02:34:03.655Z,21.40
2019-02-15T02:36:52.175Z,16.30
2019-02-15T02:39:20.729Z,15.90
2019-02-15T02:44:45.867Z,15.50
2019-02-15T02:47:14.641Z,14.17
2019-02-15T02:49:43.446Z,26.80
2019-02-15T02:52:12.204Z,17.93
2019-02-15T02:54:40.620Z,22.53
2019-02-15T02:57:28.530Z,18.77
2019-02-15T02:59:57.025Z,19.30
2019-02-15T03:02:44.837Z,19.80
2019-02-15T03:05:13.409Z,19.60
2019-02-15T03:08:01.241Z,15.87
2019-02-15T03:10:48.996Z,16.17
2019-02-15T03:13:17.532Z,16.03
2019-02-15T03:15:45.959Z,16.37
2019-02-15T03:18:15.136Z,15.50
2019-02-15T03:21:02.997Z,17.03
2019-02-15T03:23:31.414Z,19.57
2019-02-15T03:25:59.920Z,16.77
2019-02-15T03:28:28.341Z,14.30
2019-02-15T03:30:56.816Z,13.50
2019-02-15T03:33:25.283Z,18.20
2019-02-15T03:36:01.355Z,22.80
2019-02-15T03:38:36.905Z,18.47
2019-02-15T03:44:00.933Z,18.17
2019-02-15T03:46:29.348Z,23.80
2019-02-15T03:48:57.788Z,16.67
2019-02-15T03:51:26.279Z,16.37
2019-02-15T03:54:06.616Z,14.90
2019-02-15T03:56:35.059Z,14.17
2019-02-15T03:59:03.915Z,14.50
2019-02-15T04:01:51.700Z,15.93
2019-02-15T04:04:39.451Z,14.70
2019-02-15T04:07:07.905Z,20.93
2019-02-15T04:09:36.359Z,15.60
2019-02-15T04:12:04.838Z,16.60
2019-02-15T04:14:52.690Z,15.10
2019-02-15T04:17:21.102Z,15.50
2019-02-15T04:19:49.560Z,18.60
2019-02-15T04:22:37.320Z,19.10
2019-02-15T04:25:06.318Z,18.30
2019-02-15T04:27:34.794Z,19.13
2019-02-15T04:30:03.309Z,16.13
2019-02-15T04:32:31.736Z,15.23
2019-02-15T04:35:00.308Z,15.97
2019-02-15T04:37:28.791Z,14.73
2019-02-15T04:39:57.213Z,14.70
2019-02-15T04:42:25.627Z,12.97
2019-02-15T04:44:54.082Z,14.60
2019-02-15T04:47:22.782Z,15.37
2019-02-15T04:50:10.532Z,15.80
2019-02-15T04:52:51.059Z,17.30
2019-02-15T04:55:19.577Z,12.50
2019-02-15T04:58:07.385Z,15.60
2019-02-15T05:00:48.251Z,13.83
2019-02-15T05:03:19.443Z,14.40
2019-02-15T05:06:06.184Z,15.73
2019-02-15T05:08:34.605Z,17.13
2019-02-15T05:11:22.396Z,13.03
2019-02-15T05:14:02.674Z,14.40
2019-02-15T05:16:31.098Z,16.27
2019-02-15T05:18:59.544Z,13.97
2019-02-15T05:21:27.986Z,14.53
2019-02-15T05:23:56.415Z,16.50
2019-02-15T05:26:24.867Z,16.20
2019-02-15T05:28:53.306Z,14.30
2019-02-15T05:31:41.059Z,15.37
2019-02-15T05:34:09.567Z,15.87
2019-02-15T05:36:38.015Z,16.60
2019-02-15T05:39:08.171Z,16.33
2019-02-15T05:41:55.978Z,18.43
2019-02-15T05:44:24.384Z,14.47
2019-02-15T05:46:52.837Z,20.10
2019-02-15T05:49:40.665Z,17.20
2019-02-15T05:52:21.045Z,15.60
2019-02-15T05:54:49.451Z,17.17
2019-02-15T05:57:17.883Z,15.00
2019-02-15T05:59:46.321Z,18.20
2019-02-15T06:02:14.792Z,14.53
2019-02-15T06:04:43.250Z,13.10
2019-02-15T06:07:11.749Z,18.33
2019-02-15T06:09:40.265Z,16.57
2019-02-15T06:12:28.033Z,16.93
2019-02-15T06:15:15.975Z,15.10
2019-02-15T06:17:44.527Z,19.53
2019-02-15T06:20:13.037Z,17.00
2019-02-15T06:23:00.819Z,16.70
2019-02-15T06:25:29.244Z,17.30
2019-02-15T06:28:17.031Z,17.17
2019-02-15T06:30:57.360Z,16.23
2019-02-15T06:33:29.219Z,14.47
2019-02-15T06:35:57.713Z,15.80
2019-02-15T06:38:34.597Z,15.27
2019-02-15T06:40:56.301Z,20.17
2019-02-15T06:43:24.759Z,22.23
2019-02-15T06:45:53.270Z,27.77
2019-02-15T06:48:21.689Z,20.30
2019-02-15T06:51:09.477Z,20.20
2019-02-15T06:53:37.994Z,16.27
2019-02-15T06:56:25.751Z,15.40
2019-02-15T06:58:55.860Z,19.77
2019-02-15T07:01:45.330Z,17.17
2019-02-15T07:04:20.927Z,19.93
2019-02-15T07:06:49.463Z,18.30
2019-02-15T07:09:17.886Z,24.00
2019-02-15T07:11:46.350Z,17.17
2019-02-15T07:14:34.204Z,16.70
2019-02-15T07:17:02.644Z,15.43
2019-02-15T07:19:31.060Z,15.13
2019-02-15T07:21:59.788Z,15.50
2019-02-15T07:24:28.252Z,17.57
2019-02-15T07:26:56.667Z,18.40
2019-02-15T07:32:21.295Z,16.73
2019-02-15T07:34:49.730Z,15.77
2019-02-15T07:37:18.168Z,19.27
2019-02-15T07:39:46.635Z,15.87
2019-02-15T07:42:16.495Z,18.20
2019-02-15T07:44:44.906Z,16.03
2019-02-15T07:47:32.685Z,16.20
2019-02-15T07:50:01.169Z,17.40
2019-02-15T07:52:29.687Z,16.17
2019-02-15T07:54:59.726Z,13.10
2019-02-15T07:57:47.520Z,16.37
2019-02-15T08:00:15.962Z,15.23
2019-02-15T08:02:44.409Z,14.17
2019-02-15T08:05:13.736Z,15.83
2019-02-15T08:07:42.151Z,17.40
2019-02-15T08:10:11.430Z,14.37
2019-02-15T08:12:39.915Z,14.23
2019-02-15T08:15:09.893Z,19.70
2019-02-15T08:17:38.314Z,16.50
2019-02-15T08:20:09.749Z,15.93
2019-02-15T08:25:33.616Z,22.20
2019-02-15T08:28:02.032Z,20.33
2019-02-15T08:30:30.480Z,16.53
2019-02-15T08:32:58.897Z,33.37
2019-02-15T08:35:27.339Z,17.57
2019-02-15T08:37:55.763Z,15.80
2019-02-15T08:40:24.278Z,18.50
2019-02-15T08:42:52.696Z,15.80
2019-02-15T08:45:21.146Z,25.57
2019-02-15T08:47:49.561Z,19.70
2019-02-15T08:50:17.991Z,19.40
2019-02-15T08:52:46.435Z,22.93
2019-02-15T08:55:14.918Z,16.03
2019-02-15T08:57:43.345Z,15.70
2019-02-15T09:00:14.408Z,13.57
2019-02-15T09:02:42.851Z,15.60
2019-02-15T09:05:12.454Z,14.77
2019-02-15T09:07:40.999Z,15.47
2019-02-15T09:10:11.779Z,13.80
2019-02-15T09:12:40.297Z,14.37
2019-02-15T09:15:20.215Z,15.27
2019-02-15T09:17:48.707Z,25.23
2019-02-15T09:20:17.190Z,18.60
2019-02-15T09:22:45.630Z,12.90
2019-02-15T09:25:14.190Z,23.97
2019-02-15T09:28:12.822Z,14.60
2019-02-15T09:30:53.993Z,14.87
2019-02-15T09:33:34.807Z,15.33
2019-02-15T09:36:03.314Z,12.03
2019-02-15T09:38:51.104Z,20.23
2019-02-15T09:41:19.511Z,15.20
2019-02-15T09:43:47.959Z,17.60
2019-02-15T09:46:19.904Z,15.80
2019-02-15T09:48:46.565Z,22.73
2019-02-15T09:51:14.974Z,14.97
2019-02-15T09:53:44.618Z,27.97
2019-02-15T09:56:13.058Z,16.30
2019-02-15T09:58:41.480Z,16.30
2019-02-15T10:01:09.927Z,16.00
2019-02-15T10:03:57.684Z,15.90
2019-02-15T10:06:26.127Z,16.60
2019-02-15T10:09:13.882Z,14.80
2019-02-15T10:11:42.337Z,15.23
2019-02-15T10:14:10.776Z,16.97
2019-02-15T10:16:39.197Z,15.47
2019-02-15T10:19:26.978Z,14.60
2019-02-15T10:22:07.556Z,17.33
2019-02-15T10:27:25.826Z,31.33
2019-02-15T10:29:54.867Z,19.67
2019-02-15T10:32:23.738Z,15.50
2019-02-15T10:34:52.635Z,20.10
2019-02-15T10:37:21.136Z,15.53
2019-02-15T10:39:49.583Z,14.10
2019-02-15T10:42:18.067Z,16.87
2019-02-15T10:45:07.383Z,18.20
2019-02-15T10:47:35.836Z,14.77
2019-02-15T10:50:06.683Z,16.20
2019-02-15T10:52:35.094Z,16.23
2019-02-15T10:55:03.610Z,14.63
2019-02-15T10:57:32.055Z,15.73
2019-02-15T11:00:00.480Z,14.00
2019-02-15T11:02:28.925Z,15.80
2019-02-15T11:05:17.171Z,14.87
2019-02-15T11:07:45.628Z,14.27
2019-02-15T11:10:14.318Z,15.17
2019-02-15T11:12:43.887Z,19.10
2019-02-15T11:15:17.368Z,14.57
2019-02-15T11:18:05.924Z,14.57
2019-02-15T11:20:34.516Z,16.17
2019-02-15T11:23:02.994Z,22.23
2019-02-15T11:25:31.451Z,13.20
2019-02-15T11:28:19.302Z,16.40
2019-02-15T11:30:47.965Z,22.13
2019-02-15T11:33:35.848Z,21.83
2019-02-15T11:36:23.657Z,18.90
2019-02-15T11:38:52.089Z,18.23
2019-02-15T11:41:39.892Z,15.73
2019-02-15T11:44:08.348Z,13.03
2019-02-15T11:46:36.865Z,21.03
2019-02-15T11:49:05.289Z,25.40
2019-02-15T11:51:33.740Z,16.50
2019-02-15T11:54:02.196Z,17.00
2019-02-15T11:56:30.631Z,27.70
2019-02-15T11:59:00.470Z,17.10
2019-02-15T12:01:36.481Z,18.93
2019-02-15T12:04:04.908Z,18.33
2019-02-15T12:06:52.696Z,19.60
2019-02-15T12:09:40.460Z,15.27
2019-02-15T12:12:20.906Z,22.43
2019-02-15T12:14:49.395Z,15.50
2019-02-15T12:17:17.851Z,19.60
2019-02-15T12:19:46.295Z,17.43
2019-02-15T12:22:14.714Z,13.40
2019-02-15T12:25:02.519Z,18.60
2019-02-15T12:27:30.937Z,18.07
2019-02-15T12:29:59.357Z,15.80
2019-02-15T12:32:27.814Z,19.13
2019-02-15T12:34:56.223Z,19.10
2019-02-15T12:37:26.047Z,17.73
2019-02-15T12:39:54.507Z,14.97
2019-02-15T12:42:22.919Z,18.20
2019-02-15T12:44:51.369Z,19.37
2019-02-15T12:47:39.169Z,14.43
2019-02-15T12:50:26.952Z,20.50
2019-02-15T12:55:50.180Z,14.57
2019-02-15T12:58:18.589Z,17.10
2019-02-15T13:00:47.033Z,16.10
2019-02-15T13:03:15.626Z,18.77
2019-02-15T13:05:44.055Z,15.00
2019-02-15T13:08:12.487Z,18.40
2019-02-15T13:10:42.198Z,16.27
2019-02-15T13:13:29.964Z,18.53
2019-02-15T13:15:59.067Z,16.60
2019-02-15T13:18:27.478Z,24.63
2019-02-15T13:21:15.274Z,16.37
2019-02-15T13:23:43.690Z,20.83
2019-02-15T13:26:12.151Z,16.77
2019-02-15T13:28:40.676Z,16.40
2019-02-15T13:31:09.166Z,19.50
2019-02-15T13:33:37.629Z,17.37
2019-02-15T13:36:06.076Z,17.13
2019-02-15T13:38:34.587Z,16.43
2019-02-15T13:41:03.015Z,15.60
2019-02-15T13:43:31.453Z,17.63
2019-02-15T13:45:59.963Z,17.77
2019-02-15T13:48:28.386Z,17.20
2019-02-15T13:51:04.115Z,18.57
2019-02-15T13:53:51.908Z,17.30
2019-02-15T13:56:20.466Z,17.60
2019-02-15T13:59:08.243Z,17.93
2019-02-15T14:01:55.999Z,17.63
2019-02-15T14:04:24.442Z,23.30
2019-02-15T14:06:54.343Z,17.10
2019-02-15T14:09:22.943Z,20.50
2019-02-15T14:14:40.274Z,31.10
2019-02-15T14:17:08.795Z,32.63
2019-02-15T14:19:56.551Z,33.30
2019-02-15T14:22:25.023Z,33.87
2019-02-15T14:24:53.659Z,36.03
2019-02-15T14:27:22.107Z,32.97
2019-02-15T14:30:10.660Z,30.73
2019-02-15T14:32:40.468Z,31.27
2019-02-15T14:35:28.382Z,33.03
2019-02-15T14:38:08.612Z,25.57
2019-02-15T14:40:48.875Z,39.67
2019-02-15T14:43:17.304Z,33.70
2019-02-15T14:46:05.087Z,26.13
2019-02-15T14:48:33.515Z,24.67
2019-02-15T14:51:01.969Z,26.90
2019-02-15T14:53:30.410Z,22.97
2019-02-15T14:56:18.277Z,23.97
2019-02-15T14:58:46.686Z,23.80
2019-02-15T15:01:15.197Z,28.67
2019-02-15T15:03:43.627Z,25.20
2019-02-15T15:06:31.406Z,30.77
2019-02-15T15:08:59.886Z,28.23
2019-02-15T15:11:28.340Z,23.13
2019-02-15T15:13:56.785Z,25.67
2019-02-15T15:16:44.546Z,25.80
2019-02-15T15:19:12.992Z,23.00
2019-02-15T15:21:53.756Z,28.93
2019-02-15T15:24:22.176Z,24.87
2019-02-15T15:26:50.712Z,25.40
2019-02-15T15:29:19.129Z,24.50
2019-02-15T15:31:47.561Z,26.73
2019-02-15T15:34:35.335Z,30.50
2019-02-15T15:37:03.752Z,32.67
2019-02-15T15:39:32.197Z,30.00
2019-02-15T15:42:00.658Z,30.43
2019-02-15T15:44:29.107Z,30.70
2019-02-15T15:46:57.554Z,37.57
2019-02-15T15:49:25.996Z,42.93
2019-02-15T15:54:47.751Z,30.50
2019-02-15T15:57:35.510Z,33.70
2019-02-15T16:00:04.700Z,32.93
2019-02-15T16:02:52.489Z,39.97
2019-02-15T16:05:40.262Z,31.73
2019-02-15T16:08:08.724Z,32.60
2019-02-15T16:10:37.178Z,30.10
2019-02-15T16:13:24.966Z,33.60
2019-02-15T16:15:53.412Z,32.27
2019-02-15T16:18:21.865Z,30.33
2019-02-15T16:20:50.397Z,32.80
2019-02-15T16:23:18.836Z,35.60
2019-02-15T16:25:49.411Z,38.37
2019-02-15T16:28:20.629Z,35.40
2019-02-15T16:31:08.463Z,33.10
2019-02-15T16:33:36.955Z,39.00
2019-02-15T16:36:05.437Z,33.97
2019-02-15T16:38:53.230Z,38.20
2019-02-15T16:41:33.877Z,36.27
2019-02-15T16:44:15.136Z,36.30
2019-02-15T16:46:43.644Z,32.33
2019-02-15T16:49:12.087Z,33.83
2019-02-15T16:51:40.498Z,35.10
2019-02-15T16:54:21.654Z,38.80
2019-02-15T16:57:02.512Z,39.27
2019-02-15T16:59:43.451Z,39.07
2019-02-15T17:02:12.003Z,36.10
2019-02-15T17:04:59.819Z,37.87
2019-02-15T17:07:28.324Z,35.07
2019-02-15T17:09:56.836Z,36.20
2019-02-15T17:12:44.631Z,34.50
2019-02-15T17:15:15.150Z,61.80
2019-02-15T17:17:43.627Z,33.73
2019-02-15T17:20:12.101Z,38.80
2019-02-15T17:22:40.612Z,35.17
2019-02-15T17:25:11.744Z,43.10
2019-02-15T17:27:40.277Z,44.13
2019-02-15T17:30:28.106Z,38.00
2019-02-15T17:33:09.288Z,33.63
2019-02-15T17:35:50.170Z,35.87
2019-02-15T17:38:31.009Z,30.50
2019-02-15T17:41:11.855Z,30.70
2019-02-15T17:43:40.322Z,32.30
2019-02-15T17:46:28.117Z,37.17
2019-02-15T17:49:00.767Z,36.03
2019-02-15T17:51:27.039Z,36.20
2019-02-15T17:54:14.829Z,37.03
2019-02-15T17:56:43.286Z,36.83
2019-02-15T17:59:11.713Z,36.17
2019-02-15T18:01:59.504Z,36.23
2019-02-15T18:04:27.931Z,35.50
2019-02-15T18:06:56.383Z,49.17
2019-02-15T18:09:24.889Z,47.03
2019-02-15T18:12:12.657Z,54.27
2019-02-15T18:14:41.203Z,70.53
2019-02-15T18:17:09.626Z,59.77
2019-02-15T18:19:46.916Z,84.87
2019-02-15T18:22:08.306Z,46.00
2019-02-15T18:24:36.763Z,42.60
2019-02-15T18:27:05.269Z,39.40
2019-02-15T18:29:33.727Z,35.63
2019-02-15T18:32:02.156Z,38.60
2019-02-15T18:34:36.551Z,38.80
2019-02-15T18:37:16.706Z,39.70
2019-02-15T18:39:45.221Z,39.17
2019-02-15T18:42:32.980Z,40.67
2019-02-15T18:45:01.528Z,37.43
2019-02-15T18:47:29.948Z,44.47
2019-02-15T18:49:58.364Z,39.30
2019-02-15T18:52:46.700Z,38.07
2019-02-15T18:55:15.188Z,33.57
2019-02-15T18:57:43.703Z,35.80
2019-02-15T19:00:14.942Z,32.13
2019-02-15T19:02:45.429Z,35.10
2019-02-15T19:05:14.830Z,31.33
2019-02-15T19:07:43.297Z,31.43
2019-02-15T19:10:20.091Z,34.30
2019-02-15T19:12:48.611Z,38.50
2019-02-15T19:15:17.384Z,29.73
2019-02-15T19:18:05.193Z,30.13
2019-02-15T19:20:33.618Z,28.23
2019-02-15T19:23:02.115Z,23.30
2019-02-15T19:25:30.583Z,26.60
2019-02-15T19:27:59.010Z,23.53
2019-02-15T19:30:33.096Z,20.70
2019-02-15T19:33:01.539Z,20.77
2019-02-15T19:35:30.017Z,29.17
2019-02-15T19:37:58.501Z,19.90
2019-02-15T19:40:26.942Z,22.93
2019-02-15T19:43:07.578Z,33.53
2019-02-15T19:45:36.070Z,20.97
2019-02-15T19:48:04.546Z,25.77
2019-02-15T19:50:33.086Z,29.37
2019-02-15T19:53:01.554Z,28.17
2019-02-15T19:55:30.002Z,32.43
2019-02-15T19:58:17.812Z,27.23
2019-02-15T20:00:46.246Z,33.13
2019-02-15T20:03:14.707Z,36.30
2019-02-15T20:06:02.483Z,40.40
2019-02-15T20:08:30.939Z,39.93
2019-02-15T20:10:59.442Z,39.57
2019-02-15T20:13:47.269Z,46.63
2019-02-15T20:16:15.678Z,49.73
2019-02-15T20:18:49.179Z,50.33
2019-02-15T20:21:17.617Z,54.50
2019-02-15T20:24:05.504Z,47.40
2019-02-15T20:26:34.019Z,45.00
2019-02-15T20:29:02.437Z,40.10
2019-02-15T20:31:31.107Z,33.57
2019-02-15T20:34:18.914Z,41.23
2019-02-15T20:36:47.362Z,29.80
2019-02-15T20:39:16.179Z,31.77
2019-02-15T20:41:44.857Z,26.40
2019-02-15T20:44:13.570Z,19.50
2019-02-15T20:46:41.995Z,21.97
2019-02-15T20:49:10.730Z,19.33
2019-02-15T20:51:39.433Z,23.53
2019-02-15T20:54:08.305Z,25.23
2019-02-15T20:56:36.794Z,17.73
2019-02-15T20:59:09.795Z,24.07
2019-02-15T21:01:57.788Z,19.67
2019-02-15T21:04:26.345Z,22.63
2019-02-15T21:06:54.984Z,20.10
2019-02-15T21:09:23.695Z,19.27
2019-02-15T21:11:52.639Z,19.17
2019-02-15T21:14:21.186Z,20.43
2019-02-15T21:16:49.706Z,16.30
2019-02-15T21:19:18.387Z,22.30
2019-02-15T21:21:47.096Z,21.67
2019-02-15T21:24:15.647Z,17.67
2019-02-15T21:26:44.221Z,17.10
2019-02-15T21:29:12.835Z,19.43
2019-02-15T21:31:41.458Z,22.07
2019-02-15T21:34:09.873Z,17.53
2019-02-15T21:36:57.656Z,20.07
2019-02-15T21:39:26.087Z,25.23
2019-02-15T21:41:54.542Z,19.80
2019-02-15T21:44:42.293Z,22.20
2019-02-15T21:47:10.739Z,29.47
2019-02-15T21:49:58.527Z,17.37
2019-02-15T21:52:26.952Z,21.33
2019-02-15T21:54:55.387Z,19.43
2019-02-15T21:57:28.283Z,18.50
2019-02-15T21:59:56.699Z,16.90
2019-02-15T22:02:25.220Z,19.57
2019-02-15T22:04:53.717Z,16.10
2019-02-15T22:07:22.626Z,17.40
2019-02-15T22:09:51.111Z,18.00
2019-02-15T22:12:25.333Z,16.40
2019-02-15T22:15:14.628Z,20.43
2019-02-15T22:17:43.070Z,17.13
2019-02-15T22:20:13.797Z,17.60
2019-02-15T22:25:38.556Z,20.13
2019-02-15T22:28:06.972Z,18.33
2019-02-15T22:30:54.747Z,18.27
2019-02-15T22:33:42.503Z,21.13
2019-02-15T22:36:12.059Z,19.43
2019-02-15T22:38:40.526Z,17.47
2019-02-15T22:41:28.309Z,16.07
2019-02-15T22:43:56.743Z,16.53
2019-02-15T22:46:25.186Z,17.27
2019-02-15T22:48:53.622Z,19.30
2019-02-15T22:51:41.439Z,22.23
2019-02-15T22:54:22.196Z,15.87
2019-02-15T22:57:02.952Z,16.53
2019-02-15T22:59:33.072Z,18.40
2019-02-15T23:02:20.851Z,21.30
2019-02-15T23:05:08.711Z,24.40
2019-02-15T23:07:49.342Z,22.60
2019-02-15T23:10:17.795Z,18.90
2019-02-15T23:12:46.312Z,17.70
2019-02-15T23:15:14.731Z,16.90
2019-02-15T23:18:02.535Z,17.90
2019-02-15T23:20:30.951Z,17.63
2019-02-15T23:22:59.376Z,20.90
2019-02-15T23:25:27.826Z,18.30
2019-02-15T23:27:56.289Z,20.13
2019-02-15T23:30:24.715Z,18.70
2019-02-15T23:33:12.495Z,17.17
2019-02-15T23:35:40.976Z,18.10
2019-02-15T23:38:09.464Z,18.90
2019-02-15T23:40:37.895Z,20.53
2019-02-15T23:43:18.773Z,18.60
2019-02-15T23:45:47.359Z,18.60
2019-02-15T23:48:35.157Z,18.47
2019-02-15T23:51:03.588Z,19.67
2019-02-15T23:53:32.009Z,19.67
2019-02-15T23:56:19.789Z,17.70
2019-02-15T23:58:48.584Z,16.90
